Time;durP1;ratioP1;P1;durP2;ratioP2;P2;SDS_P1;SDS_P2;PMS_P1;PMS_P2;Temp;Humidity;BMP_temperature;BMP_pressure;BME280_temperature;BME280_humidity;BME280_pressure;Samples;Min_cycle;Max_cycle;Signal;HPM_P1;HPM_P2
2021/11/28 00:02:08;;;;;;;;;;;-1.80;99.90;;;;;;5051486;28;19912;-76
2021/11/28 00:04:34;;;;;;;;;;;-1.90;99.90;;;;;;5050193;28;19909;-76
2021/11/28 00:07:04;;;;;;;;;;;-1.80;99.90;;;;;;5050848;28;20271;-76
2021/11/28 00:09:54;;;;;;;;;;;-1.80;99.90;;;;;;5051108;28;20000;-76
2021/11/28 00:14:46;;;;;;;;;;;-1.80;99.90;;;;;;5050491;28;19909;-76
2021/11/28 00:17:12;;;;;;;;;;;-1.80;99.90;;;;;;5044560;28;20407;-76
2021/11/28 00:19:39;;;;;;;;;;;-1.70;99.90;;;;;;5050338;28;19909;-76
2021/11/28 00:22:05;;;;;;;;;;;-1.70;99.90;;;;;;5048118;28;20352;-76
2021/11/28 00:24:31;;;;;;;;;;;-1.60;99.90;;;;;;5049348;28;20256;-76
2021/11/28 00:26:56;;;;;;;;;;;-1.50;99.90;;;;;;5052288;28;19971;-76
2021/11/28 00:29:22;;;;;;;;;;;-1.60;99.90;;;;;;5052509;28;19913;-76
2021/11/28 00:31:47;;;;;;;;;;;-1.60;99.90;;;;;;5054127;28;20333;-76
2021/11/28 00:34:13;;;;;;;;;;;-1.60;99.90;;;;;;5054092;28;20393;-76
2021/11/28 00:36:38;;;;;;;;;;;-1.60;99.90;;;;;;5054531;28;19986;-76
2021/11/28 00:39:04;;;;;;;;;;;-1.60;99.90;;;;;;5054190;28;19909;-76
2021/11/28 00:41:29;;;;;;;;;;;-1.50;99.90;;;;;;5054267;28;20426;-76
2021/11/28 00:43:55;;;;;;;;;;;-1.50;99.90;;;;;;5054087;28;19909;-76
2021/11/28 00:46:20;;;;;;;;;;;-1.50;99.90;;;;;;5054376;28;19908;-76
2021/11/28 00:48:46;;;;;;;;;;;-1.40;99.90;;;;;;5053975;28;19913;-76
2021/11/28 00:53:44;;;;;;;;;;;-1.50;99.90;;;;;;5054116;28;19912;-76
2021/11/28 00:56:10;;;;;;;;;;;-1.40;99.90;;;;;;5054471;28;20557;-76
2021/11/28 00:58:35;;;;;;;;;;;-1.40;99.90;;;;;;5054114;28;19959;-76
2021/11/28 01:01:01;;;;;;;;;;;-1.30;99.90;;;;;;5053766;28;19920;-76
2021/11/28 01:03:26;;;;;;;;;;;-1.30;99.90;;;;;;5053725;28;19963;-76
2021/11/28 01:05:53;;;;;;;;;;;-1.30;99.90;;;;;;5053968;28;19915;-76
2021/11/28 01:08:19;;;;;;;;;;;-1.20;99.90;;;;;;5053832;28;19939;-76
2021/11/28 01:10:47;;;;;;;;;;;-1.10;99.90;;;;;;5053785;28;20365;-76
2021/11/28 01:13:14;;;;;;;;;;;-1.10;99.90;;;;;;5053467;28;19999;-76
2021/11/28 01:15:39;;;;;;;;;;;-1.10;99.90;;;;;;5054082;28;19923;-76
2021/11/28 01:18:05;;;;;;;;;;;-1.10;99.90;;;;;;5053543;28;19939;-76
2021/11/28 01:20:31;;;;;;;;;;;-1.10;99.90;;;;;;5053506;28;19908;-76
2021/11/28 01:22:56;;;;;;;;;;;-1.00;99.90;;;;;;5053385;28;20386;-76
2021/11/28 01:25:22;;;;;;;;;;;-1.00;99.90;;;;;;5053379;28;19909;-76
2021/11/28 01:27:47;;;;;;;;;;;-1.00;99.90;;;;;;5053393;28;19970;-76
2021/11/28 01:30:13;;;;;;;;;;;-0.90;99.90;;;;;;5052013;28;19925;-76
2021/11/28 01:32:39;;;;;;;;;;;-1.00;99.90;;;;;;5053054;28;20353;-76
2021/11/28 01:35:06;;;;;;;;;;;-0.90;99.90;;;;;;5053064;28;19909;-76
2021/11/28 01:37:34;;;;;;;;;;;-1.00;99.90;;;;;;5052448;28;19912;-76
2021/11/28 01:40:04;;;;;;;;;;;-0.90;99.90;;;;;;5053642;28;19915;-76
2021/11/28 01:42:53;;;;;;;;;;;-0.90;99.90;;;;;;5053567;28;19909;-76
2021/11/28 01:45:19;;;;;;;;;;;-0.80;99.90;;;;;;5047508;28;19955;-76
2021/11/28 01:47:44;;;;;;;;;;;-0.80;99.90;;;;;;5053288;28;19952;-76
2021/11/28 01:50:10;;;;;;;;;;;-0.70;99.90;;;;;;5052083;28;19945;-76
2021/11/28 01:52:36;;;;;;;;;;;-0.80;99.90;;;;;;5053164;28;19954;-76
2021/11/28 01:55:06;;;;;;;;;;;-0.70;99.90;;;;;;5052731;28;19913;-76
2021/11/28 01:57:33;;;;;;;;;;;-0.70;99.90;;;;;;5052891;28;19913;-76
2021/11/28 01:59:58;;;;;;;;;;;-0.60;99.90;;;;;;5052774;28;20352;-76
2021/11/28 02:02:24;;;;;;;;;;;-0.60;99.90;;;;;;5052801;28;19948;-76
2021/11/28 02:04:50;;;;;;;;;;;-0.70;99.90;;;;;;5052588;28;19916;-76
2021/11/28 02:07:15;;;;;;;;;;;-0.70;99.90;;;;;;5054049;28;20578;-76
2021/11/28 02:09:41;;;;;;;;;;;-0.70;99.90;;;;;;5052220;28;19927;-76
2021/11/28 02:12:07;;;;;;;;;;;-0.70;99.90;;;;;;5052350;28;19916;-76
2021/11/28 02:14:33;;;;;;;;;;;-0.80;99.90;;;;;;5052496;28;20292;-76
2021/11/28 02:16:58;;;;;;;;;;;-0.80;99.90;;;;;;5052626;28;19913;-76
2021/11/28 02:19:24;;;;;;;;;;;-0.80;99.90;;;;;;5052621;28;19913;-76
2021/11/28 02:21:49;;;;;;;;;;;-0.80;99.90;;;;;;5048814;28;19962;-76
2021/11/28 02:24:15;;;;;;;;;;;-0.80;99.90;;;;;;5052041;28;19932;-76
2021/11/28 02:26:40;;;;;;;;;;;-0.80;99.90;;;;;;5052164;28;19912;-76
2021/11/28 02:29:06;;;;;;;;;;;-0.80;99.90;;;;;;5052213;28;20012;-76
2021/11/28 02:31:31;;;;;;;;;;;-0.70;99.90;;;;;;5052459;28;19913;-76
2021/11/28 02:33:57;;;;;;;;;;;-0.70;99.90;;;;;;5051990;28;19916;-76
2021/11/28 02:36:22;;;;;;;;;;;-0.70;99.90;;;;;;5052242;28;20306;-76
2021/11/28 02:38:48;;;;;;;;;;;-0.70;99.90;;;;;;5045763;28;19916;-76
2021/11/28 02:41:13;;;;;;;;;;;-0.70;99.90;;;;;;5051930;28;20250;-76
2021/11/28 02:43:39;;;;;;;;;;;-0.70;99.90;;;;;;5050348;28;20015;-76
2021/11/28 02:46:06;;;;;;;;;;;-0.70;99.90;;;;;;5052048;28;19909;-76
2021/11/28 02:48:31;;;;;;;;;;;-0.70;99.90;;;;;;5051583;28;19920;-76
2021/11/28 02:50:58;;;;;;;;;;;-0.70;99.90;;;;;;5051524;28;19915;-76
2021/11/28 02:53:24;;;;;;;;;;;-0.60;99.90;;;;;;5051431;28;19909;-76
2021/11/28 02:55:53;;;;;;;;;;;-0.50;99.90;;;;;;5051806;28;19915;-76
2021/11/28 02:58:19;;;;;;;;;;;-0.50;99.90;;;;;;5051730;28;19916;-76
2021/11/28 03:00:47;;;;;;;;;;;-0.50;99.90;;;;;;5051752;28;19908;-76
2021/11/28 03:03:13;;;;;;;;;;;-0.40;99.90;;;;;;5051392;28;19908;-76
2021/11/28 03:05:38;;;;;;;;;;;-0.40;99.90;;;;;;5051807;28;19909;-76
2021/11/28 03:08:04;;;;;;;;;;;-0.50;99.90;;;;;;5051669;28;19938;-76
2021/11/28 03:10:35;;;;;;;;;;;-0.50;99.90;;;;;;5051430;28;19913;-76
2021/11/28 03:13:02;;;;;;;;;;;-0.40;99.90;;;;;;5051151;28;19912;-76
2021/11/28 03:15:28;;;;;;;;;;;-0.50;99.90;;;;;;5051733;28;19954;-76
2021/11/28 03:17:53;;;;;;;;;;;-0.50;99.90;;;;;;5051626;28;19909;-76
2021/11/28 03:20:19;;;;;;;;;;;-0.50;99.90;;;;;;5050422;28;19934;-76
2021/11/28 03:22:48;;;;;;;;;;;-0.50;99.90;;;;;;5050760;28;19990;-76
2021/11/28 03:25:18;;;;;;;;;;;-0.40;99.90;;;;;;5051023;28;19912;-76
2021/11/28 03:27:44;;;;;;;;;;;-0.50;99.90;;;;;;5051096;28;19986;-76
2021/11/28 03:30:10;;;;;;;;;;;-0.50;99.90;;;;;;5051239;28;20358;-76
2021/11/28 03:32:36;;;;;;;;;;;-0.60;99.90;;;;;;5051205;28;20178;-76
2021/11/28 03:35:02;;;;;;;;;;;-0.50;99.90;;;;;;5050934;28;20305;-76
2021/11/28 03:37:28;;;;;;;;;;;-0.50;99.90;;;;;;5051014;28;19916;-76
2021/11/28 03:39:54;;;;;;;;;;;-0.50;99.90;;;;;;5051282;28;20240;-76
2021/11/28 03:42:19;;;;;;;;;;;-0.50;99.90;;;;;;5050992;28;20325;-76
2021/11/28 03:44:45;;;;;;;;;;;-0.50;99.90;;;;;;5050779;28;20281;-76
2021/11/28 03:47:10;;;;;;;;;;;-0.50;99.90;;;;;;5049832;28;19909;-76
2021/11/28 03:49:36;;;;;;;;;;;-0.40;99.90;;;;;;5050680;28;19967;-76
2021/11/28 03:52:03;;;;;;;;;;;-0.40;99.90;;;;;;5046946;28;19913;-76
2021/11/28 03:54:29;;;;;;;;;;;-0.40;99.90;;;;;;5050570;28;19917;-76
2021/11/28 03:56:55;;;;;;;;;;;-0.40;99.90;;;;;;5050940;28;19920;-76
2021/11/28 03:59:20;;;;;;;;;;;-0.50;99.90;;;;;;5050928;28;19909;-76
2021/11/28 04:01:46;;;;;;;;;;;-0.40;99.90;;;;;;5054131;28;19909;-76
2021/11/28 04:04:12;;;;;;;;;;;-0.40;99.90;;;;;;5054750;28;19920;-76
2021/11/28 04:06:37;;;;;;;;;;;-0.50;99.90;;;;;;5054837;28;19909;-76
2021/11/28 04:09:03;;;;;;;;;;;-0.50;99.90;;;;;;5054810;28;19912;-76
2021/11/28 04:11:28;;;;;;;;;;;-0.50;99.90;;;;;;5054610;28;20377;-76
2021/11/28 04:13:54;;;;;;;;;;;-0.50;99.90;;;;;;5053225;28;19909;-76
2021/11/28 04:16:20;;;;;;;;;;;-0.40;99.90;;;;;;5054661;28;20289;-76
2021/11/28 04:18:45;;;;;;;;;;;-0.40;99.90;;;;;;5054767;28;19909;-76
2021/11/28 04:21:11;;;;;;;;;;;-0.50;99.90;;;;;;5054303;28;19908;-76
2021/11/28 04:23:37;;;;;;;;;;;-0.50;99.90;;;;;;5054186;28;19912;-76
2021/11/28 04:26:03;;;;;;;;;;;-0.40;99.90;;;;;;5048069;28;19909;-76
2021/11/28 04:28:29;;;;;;;;;;;-0.40;99.90;;;;;;5047933;28;19913;-76
2021/11/28 04:30:54;;;;;;;;;;;-0.40;99.90;;;;;;5054424;28;19916;-76
2021/11/28 04:33:21;;;;;;;;;;;-0.50;99.90;;;;;;5054126;28;19961;-76
2021/11/28 04:35:47;;;;;;;;;;;-0.40;99.90;;;;;;5054364;28;20016;-76
2021/11/28 04:38:13;;;;;;;;;;;-0.40;99.90;;;;;;5054481;28;19916;-76
2021/11/28 04:40:38;;;;;;;;;;;-0.50;99.90;;;;;;5054271;28;20042;-77
2021/11/28 04:43:04;;;;;;;;;;;-0.60;99.90;;;;;;5054103;28;19962;-76
2021/11/28 04:45:29;;;;;;;;;;;-0.60;99.90;;;;;;5054256;28;19909;-76
2021/11/28 04:47:55;;;;;;;;;;;-0.50;99.90;;;;;;5054240;28;19916;-77
2021/11/28 04:50:20;;;;;;;;;;;-0.60;99.90;;;;;;5052132;28;19913;-76
2021/11/28 04:52:46;;;;;;;;;;;-0.60;99.90;;;;;;5053704;28;19963;-76
2021/11/28 04:55:12;;;;;;;;;;;-0.50;99.90;;;;;;5053876;28;19913;-76
2021/11/28 04:57:38;;;;;;;;;;;-0.50;99.90;;;;;;5054475;28;19913;-76
2021/11/28 05:00:08;;;;;;;;;;;-0.50;99.90;;;;;;5054084;28;20027;-77
2021/11/28 05:02:34;;;;;;;;;;;-0.50;99.90;;;;;;5054082;28;19909;-77
2021/11/28 05:04:59;;;;;;;;;;;-0.60;99.90;;;;;;5053611;28;20082;-76
2021/11/28 05:07:25;;;;;;;;;;;-0.50;99.90;;;;;;5054188;28;19909;-76
2021/11/28 05:09:50;;;;;;;;;;;-0.40;99.90;;;;;;5053745;28;19920;-76
2021/11/28 05:12:16;;;;;;;;;;;-0.30;99.90;;;;;;5053547;28;20008;-76
2021/11/28 05:14:41;;;;;;;;;;;-0.20;99.90;;;;;;5053442;28;19917;-76
2021/11/28 05:17:07;;;;;;;;;;;-0.10;99.90;;;;;;5053726;28;19909;-77
2021/11/28 05:19:32;;;;;;;;;;;-0.10;99.90;;;;;;5053439;28;19909;-77
2021/11/28 05:21:59;;;;;;;;;;;-0.10;99.90;;;;;;5049140;28;19920;-77
2021/11/28 05:24:25;;;;;;;;;;;-0.10;99.90;;;;;;5052966;28;19909;-77
2021/11/28 05:26:50;;;;;;;;;;;-0.10;99.90;;;;;;5053385;28;20272;-77
2021/11/28 05:29:18;;;;;;;;;;;-0.10;99.90;;;;;;5052053;28;19913;-77
2021/11/28 05:31:43;;;;;;;;;;;-0.10;99.90;;;;;;5053484;28;19959;-77
2021/11/28 05:34:09;;;;;;;;;;;-0.20;99.90;;;;;;5053384;28;19913;-76
2021/11/28 05:36:35;;;;;;;;;;;-0.30;99.90;;;;;;5053375;28;20004;-77
2021/11/28 05:39:00;;;;;;;;;;;-0.40;99.90;;;;;;5053298;28;20326;-77
2021/11/28 05:41:26;;;;;;;;;;;-0.40;99.90;;;;;;5051869;28;19915;-77
2021/11/28 05:43:51;;;;;;;;;;;-0.40;99.90;;;;;;5052950;28;20443;-76
2021/11/28 05:46:17;;;;;;;;;;;-0.40;99.90;;;;;;5053233;28;19952;-76
2021/11/28 05:48:42;;;;;;;;;;;-0.40;99.90;;;;;;5046463;28;20289;-76
2021/11/28 05:51:08;;;;;;;;;;;-0.40;99.90;;;;;;5052937;28;19909;-76
2021/11/28 05:53:34;;;;;;;;;;;-0.40;99.90;;;;;;5052517;28;20273;-76
2021/11/28 05:55:59;;;;;;;;;;;-0.40;99.90;;;;;;5051694;28;19908;-76
2021/11/28 05:58:25;;;;;;;;;;;-0.40;99.90;;;;;;5053030;28;19952;-76
2021/11/28 06:00:50;;;;;;;;;;;-0.40;99.90;;;;;;5051509;28;19940;-76
2021/11/28 06:03:16;;;;;;;;;;;-0.40;99.90;;;;;;5052331;28;20383;-76
2021/11/28 06:05:43;;;;;;;;;;;-0.40;99.90;;;;;;5052813;28;20301;-74
2021/11/28 06:08:09;;;;;;;;;;;-0.50;99.90;;;;;;5052687;28;19909;-74
2021/11/28 06:10:34;;;;;;;;;;;-0.60;99.90;;;;;;5052443;28;20365;-74
2021/11/28 06:13:00;;;;;;;;;;;-0.60;99.90;;;;;;5052283;28;20323;-75
2021/11/28 06:15:26;;;;;;;;;;;-0.60;99.90;;;;;;5052571;28;19908;-74
2021/11/28 06:17:51;;;;;;;;;;;-0.60;99.90;;;;;;5052501;28;20400;-74
2021/11/28 06:20:17;;;;;;;;;;;-0.60;99.90;;;;;;5050447;28;19909;-75
2021/11/28 06:22:42;;;;;;;;;;;-0.70;99.90;;;;;;5051500;28;19963;-75
2021/11/28 06:25:08;;;;;;;;;;;-0.70;99.90;;;;;;5050541;28;19913;-75
2021/11/28 06:27:34;;;;;;;;;;;-0.70;99.90;;;;;;5052281;28;19992;-75
2021/11/28 06:29:59;;;;;;;;;;;-0.70;99.90;;;;;;5052249;28;19924;-74
2021/11/28 06:32:25;;;;;;;;;;;-0.70;99.90;;;;;;5052064;28;20007;-75
2021/11/28 06:34:51;;;;;;;;;;;-0.80;99.90;;;;;;5051914;28;19909;-74
2021/11/28 06:37:16;;;;;;;;;;;-0.80;99.90;;;;;;5052080;28;20342;-75
2021/11/28 06:39:42;;;;;;;;;;;-0.70;99.90;;;;;;5051974;28;19920;-74
2021/11/28 06:42:07;;;;;;;;;;;-0.70;99.90;;;;;;5050831;28;19912;-75
2021/11/28 06:44:33;;;;;;;;;;;-0.60;99.90;;;;;;5051717;28;19909;-75
2021/11/28 06:46:58;;;;;;;;;;;-0.50;99.90;;;;;;5051924;28;19909;-74
2021/11/28 06:49:26;;;;;;;;;;;-0.40;99.90;;;;;;5051915;28;20381;-74
2021/11/28 06:51:55;;;;;;;;;;;-0.40;99.90;;;;;;5049254;28;19936;-75
2021/11/28 06:54:22;;;;;;;;;;;-0.50;99.90;;;;;;5051318;28;19962;-74
2021/11/28 06:56:47;;;;;;;;;;;-0.60;99.90;;;;;;5051446;28;19909;-74
2021/11/28 06:59:13;;;;;;;;;;;-0.60;99.90;;;;;;5051915;28;19920;-75
2021/11/28 07:01:38;;;;;;;;;;;-0.60;99.90;;;;;;5051522;28;19956;-74
2021/11/28 07:04:04;;;;;;;;;;;-0.50;99.90;;;;;;5051361;28;19909;-74
2021/11/28 07:06:29;;;;;;;;;;;-0.60;99.90;;;;;;5051727;28;20259;-74
2021/11/28 07:08:55;;;;;;;;;;;-0.50;99.90;;;;;;5051470;28;19917;-75
2021/11/28 07:11:20;;;;;;;;;;;-0.50;99.90;;;;;;5051589;28;19987;-75
2021/11/28 07:13:49;;;;;;;;;;;-0.50;99.90;;;;;;5051054;28;20351;-75
2021/11/28 07:16:14;;;;;;;;;;;-0.50;99.90;;;;;;5051421;28;19916;-75
2021/11/28 07:18:43;;;;;;;;;;;-0.50;99.90;;;;;;5050202;28;20274;-74
2021/11/28 07:21:09;;;;;;;;;;;-0.50;99.90;;;;;;5051041;28;19962;-75
2021/11/28 07:23:34;;;;;;;;;;;-0.60;99.90;;;;;;5047306;28;19913;-75
2021/11/28 07:26:00;;;;;;;;;;;-0.60;99.90;;;;;;5051374;28;19916;-75
2021/11/28 07:28:25;;;;;;;;;;;-0.60;99.90;;;;;;5051300;28;19920;-75
2021/11/28 07:30:51;;;;;;;;;;;-0.60;99.90;;;;;;5051010;28;19931;-75
2021/11/28 07:33:17;;;;;;;;;;;-0.60;99.90;;;;;;5049673;28;20277;-74
2021/11/28 07:35:42;;;;;;;;;;;-0.50;99.90;;;;;;5051265;28;19909;-75
2021/11/28 07:38:08;;;;;;;;;;;-0.50;99.90;;;;;;5051225;28;19956;-75
2021/11/28 07:40:33;;;;;;;;;;;-0.40;99.90;;;;;;5051550;28;19959;-74
2021/11/28 07:42:59;;;;;;;;;;;-0.30;99.90;;;;;;5051145;28;19913;-75
2021/11/28 07:45:24;;;;;;;;;;;-0.20;99.90;;;;;;5051088;28;19909;-75
2021/11/28 07:47:50;;;;;;;;;;;-0.10;99.90;;;;;;5051127;28;19931;-75
2021/11/28 07:50:16;;;;;;;;;;;-0.10;99.90;;;;;;5051430;28;19912;-75
2021/11/28 07:52:41;;;;;;;;;;;-0.10;99.90;;;;;;5050344;28;20397;-75
2021/11/28 07:55:07;;;;;;;;;;;0.00;99.90;;;;;;5049997;28;19966;-75
2021/11/28 07:57:32;;;;;;;;;;;0.00;99.90;;;;;;5051376;28;19909;-75
2021/11/28 07:59:58;;;;;;;;;;;0.00;99.90;;;;;;5050966;28;19959;-75
2021/11/28 08:02:23;;;;;;;;;;;0.10;99.90;;;;;;5051200;28;19916;-75
2021/11/28 08:04:49;;;;;;;;;;;0.10;99.90;;;;;;5052028;28;19908;-75
2021/11/28 08:07:14;;;;;;;;;;;0.20;99.90;;;;;;5052017;28;19949;-75
2021/11/28 08:09:40;;;;;;;;;;;0.10;99.90;;;;;;5051352;28;19913;-74
2021/11/28 08:12:06;;;;;;;;;;;0.20;99.90;;;;;;5052247;28;19916;-75
2021/11/28 08:14:31;;;;;;;;;;;0.30;99.90;;;;;;5050408;28;20008;-75
2021/11/28 08:16:57;;;;;;;;;;;0.30;99.90;;;;;;5050574;28;19909;-75
2021/11/28 08:19:22;;;;;;;;;;;0.30;99.90;;;;;;5050742;28;19909;-75
2021/11/28 08:21:48;;;;;;;;;;;0.40;99.90;;;;;;5046255;28;20378;-75
2021/11/28 08:24:14;;;;;;;;;;;0.50;99.90;;;;;;5043947;28;19909;-76
2021/11/28 08:26:39;;;;;;;;;;;0.60;99.90;;;;;;5049583;28;19913;-76
2021/11/28 08:29:06;;;;;;;;;;;0.50;99.90;;;;;;5050709;28;19942;-75
2021/11/28 08:31:32;;;;;;;;;;;0.50;99.90;;;;;;5050924;28;20017;-76
2021/11/28 08:33:57;;;;;;;;;;;0.50;99.90;;;;;;5050674;28;20365;-76
2021/11/28 08:36:23;;;;;;;;;;;0.40;99.90;;;;;;5050814;28;19924;-75
2021/11/28 08:38:52;;;;;;;;;;;0.40;99.90;;;;;;5050895;28;19909;-75
2021/11/28 08:41:22;;;;;;;;;;;0.50;99.90;;;;;;5050754;28;19950;-75
2021/11/28 08:43:49;;;;;;;;;;;0.50;99.90;;;;;;5050151;28;19909;-75
2021/11/28 08:46:15;;;;;;;;;;;0.40;99.90;;;;;;5051419;28;19962;-75
2021/11/28 08:48:40;;;;;;;;;;;0.50;99.90;;;;;;5053425;28;20332;-75
2021/11/28 08:51:07;;;;;;;;;;;0.50;99.90;;;;;;5049975;28;19956;-75
2021/11/28 08:53:32;;;;;;;;;;;0.50;99.90;;;;;;5052593;28;20330;-75
2021/11/28 08:55:58;;;;;;;;;;;0.50;99.90;;;;;;5054063;28;19947;-76
2021/11/28 08:58:23;;;;;;;;;;;0.60;99.90;;;;;;5054261;28;19915;-75
2021/11/28 09:00:49;;;;;;;;;;;0.60;99.90;;;;;;5054528;28;19909;-75
2021/11/28 09:03:15;;;;;;;;;;;0.60;99.90;;;;;;5054921;28;19909;-75
2021/11/28 09:05:40;;;;;;;;;;;0.60;99.90;;;;;;5054958;28;19913;-75
2021/11/28 09:08:06;;;;;;;;;;;0.60;99.90;;;;;;5054818;28;20297;-75
2021/11/28 09:10:32;;;;;;;;;;;0.60;99.90;;;;;;5054494;28;19952;-75
2021/11/28 09:12:58;;;;;;;;;;;0.60;99.90;;;;;;5054229;28;19994;-77
2021/11/28 09:15:25;;;;;;;;;;;0.60;99.90;;;;;;5054350;28;19909;-75
2021/11/28 09:17:59;;;;;;;;;;;0.60;99.90;;;;;;5054523;28;20046;-75
2021/11/28 09:20:25;;;;;;;;;;;0.70;99.90;;;;;;5054337;28;19909;-77
2021/11/28 09:25:17;;;;;;;;;;;0.80;99.90;;;;;;5053890;28;19908;-77
2021/11/28 09:27:47;;;;;;;;;;;0.80;99.90;;;;;;5045828;28;19917;-76
2021/11/28 09:30:13;;;;;;;;;;;0.90;99.90;;;;;;5051803;28;19964;-77
2021/11/28 09:32:39;;;;;;;;;;;0.80;99.90;;;;;;5051348;28;19913;-76
2021/11/28 09:35:05;;;;;;;;;;;1.00;99.90;;;;;;5050798;28;19909;-76
2021/11/28 09:37:31;;;;;;;;;;;1.10;99.90;;;;;;5051087;28;19955;-76
2021/11/28 09:39:57;;;;;;;;;;;1.10;99.90;;;;;;5051255;28;20099;-76
2021/11/28 09:42:27;;;;;;;;;;;1.20;99.90;;;;;;5051292;28;19967;-76
2021/11/28 09:44:53;;;;;;;;;;;1.20;99.90;;;;;;5052424;28;19986;-76
2021/11/28 09:47:19;;;;;;;;;;;1.20;99.90;;;;;;5054343;28;20126;-76
2021/11/28 09:49:45;;;;;;;;;;;1.40;99.90;;;;;;5053971;28;20377;-76
2021/11/28 09:52:12;;;;;;;;;;;1.50;99.90;;;;;;5048606;28;19956;-76
2021/11/28 09:54:43;;;;;;;;;;;1.40;99.90;;;;;;5043647;28;19913;-75
2021/11/28 09:57:17;;;;;;;;;;;1.40;99.90;;;;;;5045786;28;20350;-76
2021/11/28 09:59:43;;;;;;;;;;;1.30;99.90;;;;;;5052773;28;19972;-76
2021/11/28 10:02:13;;;;;;;;;;;1.50;99.90;;;;;;5053472;28;19909;-76
2021/11/28 10:04:38;;;;;;;;;;;1.60;99.90;;;;;;5052401;28;19917;-76
2021/11/28 10:07:04;;;;;;;;;;;1.60;99.90;;;;;;5048452;28;20423;-75
2021/11/28 10:09:30;;;;;;;;;;;1.70;99.90;;;;;;5051405;28;19913;-76
2021/11/28 10:12:13;;;;;;;;;;;1.70;99.90;;;;;;5050148;28;19909;-75
2021/11/28 10:14:39;;;;;;;;;;;1.70;99.90;;;;;;5052477;28;19913;-75
2021/11/28 10:17:04;;;;;;;;;;;1.50;99.90;;;;;;5052274;28;19962;-75
2021/11/28 10:19:32;;;;;;;;;;;1.60;99.90;;;;;;5051931;28;22156;-76
2021/11/28 10:22:02;;;;;;;;;;;1.90;99.90;;;;;;5052905;28;20384;-75
2021/11/28 10:24:28;;;;;;;;;;;2.00;99.90;;;;;;5052494;28;19955;-75
2021/11/28 10:27:09;;;;;;;;;;;2.00;99.90;;;;;;5053445;28;19917;-76
2021/11/28 10:29:41;;;;;;;;;;;2.10;99.90;;;;;;5053346;28;19912;-75
2021/11/28 10:32:08;;;;;;;;;;;2.10;99.90;;;;;;5052786;28;20357;-75
2021/11/28 10:34:38;;;;;;;;;;;2.00;99.90;;;;;;5041678;28;19916;-76
2021/11/28 10:37:09;;;;;;;;;;;2.00;99.90;;;;;;5052640;28;19912;-76
2021/11/28 10:39:36;;;;;;;;;;;2.00;99.90;;;;;;5049455;28;19908;-76
2021/11/28 10:42:02;;;;;;;;;;;2.10;99.90;;;;;;5052975;28;19913;-76
2021/11/28 10:44:28;;;;;;;;;;;2.00;99.90;;;;;;5050963;28;19909;-77
2021/11/28 10:46:58;;;;;;;;;;;2.00;99.90;;;;;;5052227;28;19919;-78
2021/11/28 10:49:26;;;;;;;;;;;2.00;99.90;;;;;;5053324;28;19913;-77
2021/11/28 10:51:53;;;;;;;;;;;1.90;99.90;;;;;;5051058;28;20019;-76
2021/11/28 10:54:27;;;;;;;;;;;1.90;99.90;;;;;;5052524;28;20015;-77
2021/11/28 10:57:05;;;;;;;;;;;2.00;99.90;;;;;;5053444;28;20365;-75
2021/11/28 10:59:30;;;;;;;;;;;2.00;99.90;;;;;;5053506;28;19916;-76
2021/11/28 11:01:56;;;;;;;;;;;1.90;99.90;;;;;;5053102;28;20169;-75
2021/11/28 11:04:22;;;;;;;;;;;2.00;99.90;;;;;;5052754;28;19951;-76
2021/11/28 11:07:06;;;;;;;;;;;2.10;99.90;;;;;;5053084;28;19909;-75
2021/11/28 11:09:40;;;;;;;;;;;2.20;99.90;;;;;;5052554;28;19917;-77
2021/11/28 11:12:24;;;;;;;;;;;2.20;99.90;;;;;;5053312;28;19953;-77
2021/11/28 11:14:50;;;;;;;;;;;2.20;99.90;;;;;;5048631;28;19913;-76
2021/11/28 11:17:16;;;;;;;;;;;2.00;99.90;;;;;;5053712;28;19909;-77
2021/11/28 11:19:46;;;;;;;;;;;2.20;99.90;;;;;;5053290;28;20278;-74
2021/11/28 11:22:26;;;;;;;;;;;2.30;99.90;;;;;;5048552;28;19919;-74
2021/11/28 11:24:54;;;;;;;;;;;2.20;99.90;;;;;;5052758;28;19913;-75
2021/11/28 11:27:39;;;;;;;;;;;2.00;99.90;;;;;;5053276;28;20077;-75
2021/11/28 11:30:05;;;;;;;;;;;2.00;99.90;;;;;;5052435;28;19958;-75
2021/11/28 11:32:45;;;;;;;;;;;1.90;99.90;;;;;;5052862;28;20336;-75
2021/11/28 11:35:15;;;;;;;;;;;1.80;99.90;;;;;;5052531;28;19916;-76
2021/11/28 11:37:41;;;;;;;;;;;1.90;99.90;;;;;;5052379;28;19909;-77
2021/11/28 11:40:11;;;;;;;;;;;1.80;99.90;;;;;;5051822;28;19909;-76
2021/11/28 11:42:37;;;;;;;;;;;1.90;99.90;;;;;;5052908;28;20014;-76
2021/11/28 11:45:03;;;;;;;;;;;1.90;99.90;;;;;;5052205;28;19909;-77
2021/11/28 11:47:29;;;;;;;;;;;1.90;99.90;;;;;;5052755;28;20273;-77
2021/11/28 11:49:55;;;;;;;;;;;2.00;99.90;;;;;;5052871;28;19968;-76
2021/11/28 11:52:21;;;;;;;;;;;2.10;99.90;;;;;;5052291;28;19908;-75
2021/11/28 11:54:58;;;;;;;;;;;2.10;99.90;;;;;;5052128;28;20438;-74
2021/11/28 11:57:44;;;;;;;;;;;2.10;99.90;;;;;;5052831;28;19948;-75
2021/11/28 12:00:13;;;;;;;;;;;2.20;99.90;;;;;;5052088;28;20274;-75
2021/11/28 12:02:43;;;;;;;;;;;2.30;99.90;;;;;;5051365;28;19931;-75
2021/11/28 12:05:28;;;;;;;;;;;2.30;99.90;;;;;;5052065;28;19909;-75
2021/11/28 12:08:03;;;;;;;;;;;2.40;99.90;;;;;;5051094;28;19909;-76
2021/11/28 12:10:42;;;;;;;;;;;2.60;99.90;;;;;;5052437;28;19919;-74
2021/11/28 12:13:13;;;;;;;;;;;2.50;99.90;;;;;;5050611;28;19916;-75
2021/11/28 12:15:49;;;;;;;;;;;2.60;99.90;;;;;;5052278;28;19909;-77
2021/11/28 12:18:33;;;;;;;;;;;2.60;99.90;;;;;;5053383;28;19909;-73
2021/11/28 12:21:00;;;;;;;;;;;2.50;99.90;;;;;;5052039;28;20000;-77
2021/11/28 12:23:44;;;;;;;;;;;2.50;99.90;;;;;;5057424;28;19908;-76
2021/11/28 12:26:24;;;;;;;;;;;2.40;99.90;;;;;;5056815;28;19909;-77
2021/11/28 12:28:50;;;;;;;;;;;2.50;99.90;;;;;;5056878;28;19958;-77
2021/11/28 12:31:24;;;;;;;;;;;2.40;99.90;;;;;;5055369;28;20432;-76
2021/11/28 12:33:49;;;;;;;;;;;2.40;99.90;;;;;;5056978;28;19909;-77
2021/11/28 12:36:34;;;;;;;;;;;2.40;99.90;;;;;;5055972;28;19969;-76
2021/11/28 12:39:00;;;;;;;;;;;2.30;99.90;;;;;;5058541;28;19963;-76
2021/11/28 12:41:47;;;;;;;;;;;2.40;99.90;;;;;;5060352;28;19916;-77
2021/11/28 12:44:21;;;;;;;;;;;2.40;99.90;;;;;;5058912;28;20297;-76
2021/11/28 12:46:50;;;;;;;;;;;2.30;99.90;;;;;;5054958;28;19959;-75
2021/11/28 12:49:22;;;;;;;;;;;2.30;99.90;;;;;;5056430;28;19974;-76
2021/11/28 12:51:47;;;;;;;;;;;2.40;99.90;;;;;;5050950;28;19920;-76
2021/11/28 12:54:22;;;;;;;;;;;2.40;99.90;;;;;;5055334;28;19913;-76
2021/11/28 12:57:07;;;;;;;;;;;2.40;99.90;;;;;;5050438;28;19909;-75
2021/11/28 12:59:33;;;;;;;;;;;2.40;99.90;;;;;;5068260;28;19936;-77
2021/11/28 13:02:00;;;;;;;;;;;2.40;99.90;;;;;;5054761;28;20373;-77
2021/11/28 13:04:38;;;;;;;;;;;2.40;99.90;;;;;;5054721;28;19915;-76
2021/11/28 13:07:22;;;;;;;;;;;2.30;99.90;;;;;;5055234;28;19913;-76
2021/11/28 13:09:48;;;;;;;;;;;2.20;99.90;;;;;;5054666;28;20366;-76
2021/11/28 13:12:15;;;;;;;;;;;2.30;99.90;;;;;;5054415;28;19937;-75
2021/11/28 13:14:44;;;;;;;;;;;2.30;99.90;;;;;;5053905;28;19912;-76
2021/11/28 13:17:10;;;;;;;;;;;2.60;99.90;;;;;;5053178;28;19915;-75
2021/11/28 13:19:36;;;;;;;;;;;2.70;99.90;;;;;;5054484;28;19909;-76
2021/11/28 13:22:12;;;;;;;;;;;2.80;99.90;;;;;;5053863;28;20543;-76
2021/11/28 13:24:37;;;;;;;;;;;2.70;99.90;;;;;;5053711;28;19908;-76
2021/11/28 13:27:03;;;;;;;;;;;2.70;99.90;;;;;;5054094;28;20019;-76
2021/11/28 13:29:31;;;;;;;;;;;2.70;99.90;;;;;;5054244;28;19920;-75
2021/11/28 13:31:59;;;;;;;;;;;2.70;99.90;;;;;;5054152;28;19915;-75
2021/11/28 13:34:31;;;;;;;;;;;2.70;99.90;;;;;;5053832;28;20274;-75
2021/11/28 13:36:57;;;;;;;;;;;2.60;99.90;;;;;;5056363;28;20351;-74
2021/11/28 13:39:25;;;;;;;;;;;2.60;99.90;;;;;;5057030;28;19909;-75
2021/11/28 13:41:51;;;;;;;;;;;2.60;99.90;;;;;;5058276;28;19920;-75
2021/11/28 13:44:18;;;;;;;;;;;2.70;99.90;;;;;;5056064;28;20266;-76
2021/11/28 13:46:45;;;;;;;;;;;2.80;99.90;;;;;;5057088;28;19909;-77
2021/11/28 13:49:10;;;;;;;;;;;2.90;99.90;;;;;;5056889;28;19913;-77
2021/11/28 13:51:50;;;;;;;;;;;2.90;99.90;;;;;;5052932;28;19961;-76
2021/11/28 13:54:17;;;;;;;;;;;2.80;99.90;;;;;;5049478;28;20405;-76
2021/11/28 13:56:49;;;;;;;;;;;2.70;99.90;;;;;;5056307;28;19909;-75
2021/11/28 13:59:19;;;;;;;;;;;2.70;99.90;;;;;;5056299;28;19909;-76
2021/11/28 14:01:45;;;;;;;;;;;2.70;99.90;;;;;;5065452;28;19976;-75
2021/11/28 14:04:21;;;;;;;;;;;2.80;99.90;;;;;;5065567;28;19921;-76
2021/11/28 14:06:47;;;;;;;;;;;2.80;99.90;;;;;;5048776;28;20312;-77
2021/11/28 14:09:13;;;;;;;;;;;2.80;99.90;;;;;;5048838;28;19927;-76
2021/11/28 14:11:39;;;;;;;;;;;2.70;99.90;;;;;;5053455;28;19909;-77
2021/11/28 14:14:04;;;;;;;;;;;2.60;99.90;;;;;;5054003;28;20000;-77
2021/11/28 14:16:30;;;;;;;;;;;2.80;99.90;;;;;;5052418;28;19948;-77
2021/11/28 14:18:59;;;;;;;;;;;2.80;99.90;;;;;;5053523;28;19909;-76
2021/11/28 14:21:39;;;;;;;;;;;2.80;99.90;;;;;;5050613;28;19924;-77
2021/11/28 14:24:25;;;;;;;;;;;2.90;99.90;;;;;;5049479;28;19912;-76
2021/11/28 14:26:51;;;;;;;;;;;2.80;99.90;;;;;;5048753;28;19917;-77
2021/11/28 14:29:26;;;;;;;;;;;2.80;99.90;;;;;;5054810;28;19923;-76
2021/11/28 14:31:58;;;;;;;;;;;2.70;99.90;;;;;;5054610;28;19916;-76
2021/11/28 14:34:24;;;;;;;;;;;2.60;99.90;;;;;;5054548;28;20007;-77